createdAt,value
2022-11-20T00:00:17.968Z,22.85
2022-11-20T00:02:44.674Z,24.73
2022-11-20T00:05:11.401Z,23.42
2022-11-20T00:07:38.178Z,24.48
2022-11-20T00:10:05.240Z,25.52
2022-11-20T00:12:32.331Z,22.40
2022-11-20T00:14:59.028Z,24.40
2022-11-20T00:17:25.762Z,24.30
2022-11-20T00:19:52.389Z,23.48
2022-11-20T00:22:19.067Z,22.23
2022-11-20T00:24:45.707Z,21.83
2022-11-20T00:27:12.368Z,26.77
2022-11-20T00:29:39.219Z,26.65
2022-11-20T00:32:05.959Z,21.80
2022-11-20T00:34:32.631Z,23.77
2022-11-20T00:36:59.282Z,25.83
2022-11-20T00:39:25.944Z,22.83
2022-11-20T00:41:52.611Z,20.67
2022-11-20T00:44:19.324Z,21.88
2022-11-20T00:46:45.964Z,26.10
2022-11-20T00:49:12.663Z,22.92
2022-11-20T00:51:39.429Z,25.13
2022-11-20T00:54:06.064Z,22.98
2022-11-20T00:56:32.753Z,24.95
2022-11-20T00:59:01.257Z,21.92
2022-11-20T01:01:30.231Z,24.15
2022-11-20T01:04:00.315Z,23.63
2022-11-20T01:06:28.137Z,25.75
2022-11-20T01:08:57.745Z,22.58
2022-11-20T01:11:27.656Z,24.42
2022-11-20T01:13:55.407Z,22.15
2022-11-20T01:16:24.772Z,24.38
2022-11-20T01:18:53.647Z,24.08
2022-11-20T01:21:25.839Z,21.60
2022-11-20T01:23:53.014Z,24.83
2022-11-20T01:26:22.465Z,27.40
2022-11-20T01:28:49.271Z,23.23
2022-11-20T01:31:22.845Z,22.98
2022-11-20T01:33:51.455Z,24.42
2022-11-20T01:36:19.331Z,23.80
2022-11-20T01:38:46.215Z,24.83
2022-11-20T01:41:35.123Z,23.52
2022-11-20T01:44:03.821Z,22.60
2022-11-20T01:46:34.670Z,23.88
2022-11-20T01:49:17.847Z,22.55
2022-11-20T01:52:00.873Z,21.67
2022-11-20T01:54:34.612Z,20.92
2022-11-20T01:57:01.821Z,21.75
2022-11-20T01:59:29.461Z,23.63
2022-11-20T02:01:56.260Z,21.27
2022-11-20T02:04:23.731Z,19.70
2022-11-20T02:06:55.027Z,23.17
2022-11-20T02:09:21.781Z,25.45
2022-11-20T02:11:48.526Z,21.67
2022-11-20T02:14:15.715Z,23.35
2022-11-20T02:16:46.695Z,22.33
2022-11-20T02:19:29.188Z,24.52
2022-11-20T02:22:15.579Z,23.10
2022-11-20T02:24:43.456Z,22.08
2022-11-20T02:27:13.461Z,23.13
2022-11-20T02:29:52.183Z,20.23
2022-11-20T02:32:21.814Z,22.25
2022-11-20T02:34:48.573Z,24.17
2022-11-20T02:37:15.637Z,25.52
2022-11-20T02:39:42.684Z,21.25
2022-11-20T02:42:09.479Z,24.95
2022-11-20T02:44:36.326Z,25.15
2022-11-20T02:47:03.142Z,24.05
2022-11-20T02:49:29.828Z,24.30
2022-11-20T02:51:56.534Z,21.38
2022-11-20T02:54:23.974Z,25.10
2022-11-20T02:56:50.922Z,23.90
2022-11-20T02:59:17.817Z,22.52
2022-11-20T03:01:44.666Z,22.58
2022-11-20T03:04:11.478Z,23.38
2022-11-20T03:06:38.275Z,22.33
2022-11-20T03:09:05.128Z,23.08
2022-11-20T03:11:32.004Z,26.58
2022-11-20T03:13:58.846Z,27.10
2022-11-20T03:16:25.605Z,24.67
2022-11-20T03:18:53.644Z,21.90
2022-11-20T03:21:20.463Z,25.38
2022-11-20T03:23:47.409Z,26.30
2022-11-20T03:26:19.801Z,25.75
2022-11-20T03:28:54.432Z,24.77
2022-11-20T03:31:24.038Z,26.70
2022-11-20T03:33:51.278Z,30.15
2022-11-20T03:36:19.424Z,26.55
2022-11-20T03:38:46.575Z,28.42
2022-11-20T03:41:22.682Z,28.98
2022-11-20T03:43:50.674Z,34.80
2022-11-20T03:46:17.863Z,27.20
2022-11-20T03:48:50.163Z,27.35
2022-11-20T03:51:27.152Z,31.52
2022-11-20T03:53:55.848Z,26.50
2022-11-20T03:56:27.874Z,27.38
2022-11-20T03:58:54.629Z,32.22
2022-11-20T04:01:23.265Z,27.85
2022-11-20T04:03:50.471Z,25.30
2022-11-20T04:06:19.848Z,27.00
2022-11-20T04:08:50.996Z,31.05
2022-11-20T04:11:27.819Z,28.92
2022-11-20T04:13:56.549Z,31.23
2022-11-20T04:16:24.719Z,26.88
2022-11-20T04:18:55.819Z,25.55
2022-11-20T04:21:23.276Z,26.50
2022-11-20T04:23:52.023Z,28.17
2022-11-20T04:26:18.692Z,29.55
2022-11-20T04:28:45.342Z,27.58
2022-11-20T04:31:15.106Z,27.20
2022-11-20T04:33:41.864Z,24.85
2022-11-20T04:36:19.722Z,27.23
2022-11-20T04:38:46.806Z,25.23
2022-11-20T04:41:18.057Z,24.88
2022-11-20T04:43:52.217Z,26.67
2022-11-20T04:46:20.528Z,27.25
2022-11-20T04:48:48.208Z,30.42
2022-11-20T04:51:14.870Z,23.08
2022-11-20T04:53:41.551Z,25.88
2022-11-20T04:56:10.065Z,25.73
2022-11-20T04:58:36.888Z,20.25
2022-11-20T05:01:05.082Z,24.83
2022-11-20T05:03:31.961Z,32.92
2022-11-20T05:06:03.495Z,34.35
2022-11-20T05:08:31.188Z,28.48
2022-11-20T05:11:05.789Z,25.65
2022-11-20T05:13:32.739Z,25.33
2022-11-20T05:16:08.003Z,28.58
2022-11-20T05:18:35.575Z,26.08
2022-11-20T05:21:02.419Z,27.45
2022-11-20T05:23:30.392Z,22.73
2022-11-20T05:25:59.433Z,25.10
2022-11-20T05:28:27.617Z,25.83
2022-11-20T05:30:54.384Z,22.92
2022-11-20T05:33:21.306Z,24.73
2022-11-20T05:35:48.998Z,28.20
2022-11-20T05:38:15.934Z,26.45
2022-11-20T05:40:42.571Z,20.20
2022-11-20T05:43:09.307Z,20.48
2022-11-20T05:45:36.148Z,19.58
2022-11-20T05:48:02.914Z,16.75
2022-11-20T05:50:29.596Z,15.52
2022-11-20T05:52:59.381Z,14.23
2022-11-20T05:55:26.520Z,12.57
2022-11-20T05:57:54.951Z,15.43
2022-11-20T06:00:21.741Z,13.75
2022-11-20T06:02:48.605Z,15.98
2022-11-20T06:05:15.392Z,17.42
2022-11-20T06:07:42.291Z,14.50
2022-11-20T06:10:09.353Z,17.80
2022-11-20T06:12:36.032Z,20.90
2022-11-20T06:15:02.681Z,23.48
2022-11-20T06:17:29.404Z,26.60
2022-11-20T06:19:56.065Z,21.70
2022-11-20T06:22:22.796Z,23.10
2022-11-20T06:24:49.534Z,23.50
2022-11-20T06:27:16.753Z,22.48
2022-11-20T06:29:43.439Z,21.95
2022-11-20T06:32:10.120Z,19.77
2022-11-20T06:34:36.809Z,21.38
2022-11-20T06:37:03.619Z,19.17
2022-11-20T06:39:30.497Z,21.08
2022-11-20T06:41:59.270Z,22.58
2022-11-20T06:44:26.467Z,21.23
2022-11-20T06:46:53.120Z,20.80
2022-11-20T06:49:20.090Z,21.60
2022-11-20T06:51:47.020Z,22.67
2022-11-20T06:54:13.851Z,21.52
2022-11-20T06:56:40.617Z,20.85
2022-11-20T06:59:08.046Z,21.98
2022-11-20T07:01:35.878Z,26.70
2022-11-20T07:04:03.997Z,25.10
2022-11-20T07:06:31.009Z,29.48
2022-11-20T07:08:57.916Z,23.95
2022-11-20T07:11:24.760Z,26.17
2022-11-20T07:13:51.652Z,20.75
2022-11-20T07:16:18.356Z,21.10
2022-11-20T07:18:50.128Z,18.80
2022-11-20T07:21:17.643Z,19.23
2022-11-20T07:23:44.511Z,18.38
2022-11-20T07:26:12.045Z,19.95
2022-11-20T07:28:39.276Z,19.63
2022-11-20T07:31:07.770Z,13.75
2022-11-20T07:33:34.724Z,18.42
2022-11-20T07:36:01.568Z,20.95
2022-11-20T07:38:28.468Z,19.48
2022-11-20T07:40:56.716Z,17.65
2022-11-20T07:43:23.404Z,20.23
2022-11-20T07:45:50.112Z,18.42
2022-11-20T07:48:16.886Z,16.25
2022-11-20T07:50:43.557Z,17.40
2022-11-20T07:53:10.303Z,16.40
2022-11-20T07:55:37.091Z,15.07
2022-11-20T07:58:03.756Z,16.77
2022-11-20T08:00:30.499Z,15.07
2022-11-20T08:02:57.251Z,14.05
2022-11-20T08:05:24.284Z,11.05
2022-11-20T08:07:50.982Z,11.07
2022-11-20T08:10:17.999Z,8.57
2022-11-20T08:13:08.156Z,9.85
2022-11-20T08:15:35.174Z,10.57
2022-11-20T08:18:30.570Z,8.77
2022-11-20T08:20:58.782Z,8.40
2022-11-20T08:23:25.474Z,10.02
2022-11-20T08:25:52.392Z,8.20
2022-11-20T08:28:21.681Z,6.00
2022-11-20T08:30:50.761Z,7.82
2022-11-20T08:33:18.468Z,8.23
2022-11-20T08:35:45.265Z,9.30
2022-11-20T08:38:11.935Z,5.45
2022-11-20T08:40:38.704Z,11.10
2022-11-20T08:43:05.474Z,10.05
2022-11-20T08:45:34.742Z,7.78
2022-11-20T08:48:05.039Z,4.95
2022-11-20T08:50:32.997Z,6.50
2022-11-20T08:53:06.778Z,7.65
2022-11-20T08:55:33.541Z,7.03
2022-11-20T08:58:04.677Z,7.63
2022-11-20T09:00:31.441Z,5.80
2022-11-20T09:02:59.541Z,6.22
2022-11-20T09:05:26.246Z,7.35
2022-11-20T09:07:52.989Z,6.72
2022-11-20T09:10:25.568Z,9.25
2022-11-20T09:12:53.154Z,6.78
2022-11-20T09:15:20.187Z,6.38
2022-11-20T09:17:57.810Z,5.85
2022-11-20T09:20:24.956Z,7.93
2022-11-20T09:22:51.591Z,6.88
2022-11-20T09:25:18.539Z,4.50
2022-11-20T09:27:46.961Z,7.07
2022-11-20T09:30:17.078Z,5.55
2022-11-20T09:32:44.127Z,5.45
2022-11-20T09:35:11.580Z,4.90
2022-11-20T09:37:38.705Z,6.82
2022-11-20T09:40:05.980Z,6.28
2022-11-20T09:42:42.790Z,6.35
2022-11-20T09:45:37.303Z,4.47
2022-11-20T09:48:19.760Z,5.22
2022-11-20T09:50:57.312Z,7.75
2022-11-20T09:54:01.291Z,6.72
2022-11-20T09:59:01.015Z,6.78
2022-11-20T10:01:31.501Z,5.55
2022-11-20T10:04:07.214Z,7.40
2022-11-20T10:06:38.542Z,7.57
2022-11-20T10:09:11.228Z,10.32
2022-11-20T10:12:04.093Z,10.43
2022-11-20T10:14:52.194Z,5.97
2022-11-20T10:17:54.321Z,10.05
2022-11-20T10:20:31.808Z,14.18
2022-11-20T10:23:25.367Z,8.80
2022-11-20T10:26:03.193Z,8.57
2022-11-20T10:28:52.622Z,11.60
2022-11-20T10:31:32.868Z,9.20
2022-11-20T10:34:12.164Z,7.82
2022-11-20T10:36:47.077Z,8.57
2022-11-20T10:39:47.406Z,10.10
2022-11-20T10:42:17.381Z,7.80
2022-11-20T10:45:05.841Z,9.32
2022-11-20T10:47:33.562Z,9.77
2022-11-20T10:50:05.601Z,10.70
2022-11-20T10:52:50.581Z,11.73
2022-11-20T10:55:29.157Z,14.20
2022-11-20T10:58:02.749Z,12.15
2022-11-20T11:00:32.157Z,12.32
2022-11-20T11:03:03.802Z,8.00
2022-11-20T11:05:38.943Z,8.82
2022-11-20T11:08:11.612Z,7.30
2022-11-20T11:10:57.185Z,5.18
2022-11-20T11:13:26.055Z,6.43
2022-11-20T11:15:53.455Z,6.85
2022-11-20T11:18:31.544Z,4.28
2022-11-20T11:21:00.381Z,8.85
2022-11-20T11:23:33.296Z,11.32
2022-11-20T11:26:02.204Z,6.10
2022-11-20T11:28:29.351Z,16.10
2022-11-20T11:30:56.823Z,22.17
2022-11-20T11:33:28.184Z,12.82
2022-11-20T11:36:05.680Z,6.15
2022-11-20T11:38:39.509Z,3.53
2022-11-20T11:41:08.501Z,6.75
2022-11-20T11:43:55.786Z,5.90
2022-11-20T11:46:31.748Z,6.95
2022-11-20T11:49:17.645Z,7.82
2022-11-20T11:52:09.597Z,7.07
2022-11-20T11:54:38.366Z,4.40
2022-11-20T11:57:43.426Z,6.93
2022-11-20T12:00:13.419Z,5.78
2022-11-20T12:02:51.504Z,7.15
2022-11-20T12:05:27.234Z,7.15
2022-11-20T12:08:00.104Z,5.40
2022-11-20T12:10:50.340Z,6.00
2022-11-20T12:13:34.297Z,7.30
2022-11-20T12:16:02.123Z,5.97
2022-11-20T12:18:29.682Z,7.50
2022-11-20T12:21:25.749Z,6.05
2022-11-20T12:24:14.285Z,7.85
2022-11-20T12:26:53.723Z,8.10
2022-11-20T12:29:42.215Z,6.72
2022-11-20T12:32:30.013Z,7.95
2022-11-20T12:35:33.217Z,7.22
2022-11-20T12:38:20.930Z,5.45
2022-11-20T12:40:53.747Z,7.63
2022-11-20T12:43:41.338Z,8.88
2022-11-20T12:46:30.742Z,10.77
2022-11-20T12:49:10.483Z,10.98
2022-11-20T12:51:51.541Z,12.77
2022-11-20T12:54:34.721Z,6.45
2022-11-20T12:57:22.274Z,5.20
2022-11-20T13:00:08.207Z,8.52
2022-11-20T13:03:08.779Z,5.72
2022-11-20T13:05:38.152Z,7.78
2022-11-20T13:08:05.231Z,7.53
2022-11-20T13:10:34.806Z,8.88
2022-11-20T13:13:09.848Z,9.07
2022-11-20T13:15:59.347Z,5.72
2022-11-20T13:18:26.361Z,6.63
2022-11-20T13:20:53.318Z,8.63
2022-11-20T13:23:28.498Z,7.35
2022-11-20T13:26:21.956Z,2.92
2022-11-20T13:29:00.279Z,7.03
2022-11-20T13:31:32.639Z,6.65
2022-11-20T13:34:01.250Z,3.70
2022-11-20T13:36:29.846Z,7.28
2022-11-20T13:38:57.035Z,7.13
2022-11-20T13:41:32.088Z,3.83
2022-11-20T13:44:16.521Z,4.80
2022-11-20T13:46:47.852Z,4.45
2022-11-20T13:49:22.707Z,4.07
2022-11-20T13:51:51.637Z,6.95
2022-11-20T13:54:48.483Z,4.28
2022-11-20T13:57:29.290Z,3.47
2022-11-20T13:59:59.566Z,6.40
2022-11-20T14:02:28.742Z,5.65
2022-11-20T14:04:58.441Z,4.68
2022-11-20T14:07:32.783Z,6.25
2022-11-20T14:09:59.486Z,3.00
2022-11-20T14:12:32.127Z,5.00
2022-11-20T14:14:59.104Z,3.15
2022-11-20T14:17:35.230Z,5.43
2022-11-20T14:20:07.843Z,3.35
2022-11-20T14:22:34.564Z,5.38
2022-11-20T14:25:19.189Z,6.85
2022-11-20T14:27:49.960Z,4.88
2022-11-20T14:30:18.682Z,4.93
2022-11-20T14:32:46.412Z,6.03
2022-11-20T14:35:23.068Z,4.15
2022-11-20T14:37:49.758Z,3.92
2022-11-20T14:40:27.447Z,4.93
2022-11-20T14:42:54.491Z,3.38
2022-11-20T14:45:22.508Z,5.90
2022-11-20T14:47:49.843Z,4.95
2022-11-20T14:50:30.503Z,4.03
2022-11-20T14:52:59.478Z,3.97
2022-11-20T14:55:32.362Z,3.65
2022-11-20T14:58:04.425Z,4.35
2022-11-20T15:00:32.109Z,3.58
2022-11-20T15:02:59.357Z,6.03
2022-11-20T15:05:45.703Z,4.57
2022-11-20T15:08:13.279Z,7.15
2022-11-20T15:10:40.166Z,5.88
2022-11-20T15:13:13.214Z,6.47
2022-11-20T15:15:45.600Z,3.78
2022-11-20T15:18:20.820Z,4.93
2022-11-20T15:20:47.849Z,3.70
2022-11-20T15:23:16.832Z,5.57
2022-11-20T15:25:43.657Z,4.45
2022-11-20T15:28:19.440Z,3.63
2022-11-20T15:30:47.504Z,6.28
2022-11-20T15:33:14.914Z,5.75
2022-11-20T15:35:41.677Z,4.68
2022-11-20T15:40:34.757Z,6.28
2022-11-20T15:42:32.615Z,7.18
2022-11-20T15:44:59.393Z,6.72
2022-11-20T15:47:29.249Z,4.47
2022-11-20T15:49:55.957Z,5.45
2022-11-20T15:52:22.874Z,5.90
2022-11-20T15:54:49.557Z,5.28
2022-11-20T15:57:16.336Z,7.60
2022-11-20T15:59:43.202Z,4.55
2022-11-20T16:02:17.525Z,8.77
2022-11-20T16:04:45.774Z,10.40
2022-11-20T16:07:12.592Z,8.30
2022-11-20T16:09:39.291Z,7.93
2022-11-20T16:12:06.348Z,8.35
2022-11-20T16:14:51.673Z,9.35
2022-11-20T16:17:38.328Z,7.32
2022-11-20T16:20:05.437Z,8.23
2022-11-20T16:22:32.127Z,10.05
2022-11-20T16:24:58.805Z,7.57
2022-11-20T16:27:25.514Z,7.68
2022-11-20T16:29:52.252Z,15.98
2022-11-20T16:32:18.895Z,32.28
2022-11-20T16:34:45.612Z,36.33
2022-11-20T16:37:12.359Z,17.65
2022-11-20T16:39:39.160Z,11.23
2022-11-20T16:42:06.088Z,10.57
2022-11-20T16:44:32.793Z,8.05
2022-11-20T16:46:59.586Z,7.10
2022-11-20T16:49:26.292Z,9.65
2022-11-20T16:51:53.191Z,14.13
2022-11-20T16:54:21.427Z,8.70
2022-11-20T16:56:48.318Z,9.60
2022-11-20T16:59:15.171Z,5.65
2022-11-20T17:01:43.163Z,5.80
2022-11-20T17:04:10.232Z,9.50
2022-11-20T17:06:40.449Z,8.13
2022-11-20T17:09:10.681Z,6.82
2022-11-20T17:11:37.440Z,9.48
2022-11-20T17:14:07.352Z,11.70
2022-11-20T17:16:35.049Z,14.50
2022-11-20T17:19:03.539Z,17.52
2022-11-20T17:21:36.220Z,12.85
2022-11-20T17:24:04.818Z,10.60
2022-11-20T17:26:32.014Z,9.27
2022-11-20T17:29:01.094Z,9.13
2022-11-20T17:31:29.479Z,12.23
2022-11-20T17:33:56.583Z,12.82
2022-11-20T17:36:23.258Z,12.88
2022-11-20T17:38:50.026Z,7.55
2022-11-20T17:41:22.488Z,6.90
2022-11-20T17:43:49.849Z,6.07
2022-11-20T17:46:18.877Z,5.95
2022-11-20T17:48:46.246Z,8.80
2022-11-20T17:51:15.452Z,9.65
2022-11-20T17:53:44.528Z,9.00
2022-11-20T17:56:29.792Z,8.27
2022-11-20T17:58:56.814Z,6.53
2022-11-20T18:01:24.116Z,8.38
2022-11-20T18:03:50.922Z,4.93
2022-11-20T18:06:20.011Z,7.90
2022-11-20T18:08:47.386Z,9.70
2022-11-20T18:11:25.277Z,7.75
2022-11-20T18:14:12.672Z,7.05
2022-11-20T18:16:44.104Z,9.85
2022-11-20T18:19:12.132Z,27.98
2022-11-20T18:21:38.945Z,34.03
2022-11-20T18:24:08.689Z,47.28
2022-11-20T18:26:38.786Z,25.65
2022-11-20T18:29:09.838Z,24.75
2022-11-20T18:31:36.633Z,15.95
2022-11-20T18:34:03.603Z,12.52
2022-11-20T18:36:31.149Z,18.40
2022-11-20T18:38:59.943Z,10.07
2022-11-20T18:41:47.033Z,9.30
2022-11-20T18:44:40.399Z,10.02
2022-11-20T18:47:14.065Z,6.38
2022-11-20T18:49:54.654Z,5.85
2022-11-20T18:52:29.600Z,5.68
2022-11-20T18:54:56.740Z,8.15
2022-11-20T18:57:25.837Z,8.20
2022-11-20T18:59:56.372Z,7.18
2022-11-20T19:02:23.320Z,5.90
2022-11-20T19:04:50.132Z,6.75
2022-11-20T19:07:17.216Z,8.02
2022-11-20T19:09:47.745Z,10.40
2022-11-20T19:12:14.584Z,7.95
2022-11-20T19:14:41.300Z,9.35
2022-11-20T19:17:10.262Z,9.10
2022-11-20T19:19:37.211Z,10.82
2022-11-20T19:22:04.407Z,13.27
2022-11-20T19:24:31.380Z,7.03
2022-11-20T19:26:58.201Z,5.07
2022-11-20T19:29:25.608Z,7.53
2022-11-20T19:31:53.214Z,7.05
2022-11-20T19:34:20.033Z,6.72
2022-11-20T19:36:46.766Z,7.20
2022-11-20T19:39:14.786Z,5.47
2022-11-20T19:41:41.792Z,5.85
2022-11-20T19:44:12.447Z,6.80
2022-11-20T19:46:39.494Z,4.47
2022-11-20T19:49:10.054Z,5.25
2022-11-20T19:51:39.353Z,4.85
2022-11-20T19:54:06.472Z,12.55
2022-11-20T19:56:33.960Z,7.40
2022-11-20T19:59:00.748Z,6.65
2022-11-20T20:01:29.779Z,8.88
2022-11-20T20:04:01.258Z,6.53
2022-11-20T20:06:28.652Z,6.18
2022-11-20T20:08:57.151Z,8.40
2022-11-20T20:11:25.827Z,6.28
2022-11-20T20:13:53.448Z,5.20
2022-11-20T20:16:21.759Z,4.30
2022-11-20T20:18:48.510Z,7.18
2022-11-20T20:21:18.650Z,5.55
2022-11-20T20:23:45.760Z,6.22
2022-11-20T20:26:12.454Z,5.38
2022-11-20T20:28:39.261Z,3.85
2022-11-20T20:31:10.926Z,3.60
2022-11-20T20:33:38.692Z,3.90
2022-11-20T20:36:06.454Z,4.15
2022-11-20T20:38:33.380Z,2.25
2022-11-20T20:41:00.280Z,2.63
2022-11-20T20:43:27.577Z,2.42
2022-11-20T20:45:55.100Z,3.75
2022-11-20T20:48:23.161Z,3.28
2022-11-20T20:50:54.853Z,6.70
2022-11-20T20:53:21.830Z,2.92
2022-11-20T20:55:58.277Z,3.67
2022-11-20T20:58:25.148Z,5.28
2022-11-20T21:00:52.166Z,3.78
2022-11-20T21:03:19.907Z,5.03
2022-11-20T21:05:47.131Z,3.88
2022-11-20T21:08:22.739Z,5.35
2022-11-20T21:10:49.836Z,5.72
2022-11-20T21:13:17.085Z,3.20
2022-11-20T21:15:47.241Z,6.78
2022-11-20T21:18:15.342Z,3.17
2022-11-20T21:21:01.337Z,7.20
2022-11-20T21:23:28.169Z,6.53
2022-11-20T21:25:54.936Z,5.50
2022-11-20T21:28:21.591Z,5.43
2022-11-20T21:30:48.341Z,9.80
2022-11-20T21:33:16.321Z,3.05
2022-11-20T21:35:43.011Z,10.85
2022-11-20T21:38:09.671Z,2.65
2022-11-20T21:40:36.490Z,5.28
2022-11-20T21:43:03.225Z,4.45
2022-11-20T21:45:29.971Z,5.18
2022-11-20T21:47:56.713Z,1.70
2022-11-20T21:50:23.435Z,3.60
2022-11-20T21:52:50.328Z,2.40
2022-11-20T21:55:17.023Z,2.90
2022-11-20T21:57:43.769Z,3.08
2022-11-20T22:00:12.181Z,8.30
2022-11-20T22:02:40.312Z,3.60
2022-11-20T22:05:08.004Z,4.80
2022-11-20T22:07:35.226Z,4.07
2022-11-20T22:10:02.065Z,4.30
2022-11-20T22:12:28.752Z,3.33
2022-11-20T22:14:55.469Z,4.88
2022-11-20T22:17:42.237Z,3.83
2022-11-20T22:20:09.827Z,3.40
2022-11-20T22:22:36.533Z,3.25
2022-11-20T22:25:03.685Z,3.97
2022-11-20T22:27:30.508Z,3.58
2022-11-20T22:29:57.201Z,3.60
2022-11-20T22:32:23.874Z,2.55
2022-11-20T22:34:50.670Z,1.63
2022-11-20T22:37:17.417Z,3.53
2022-11-20T22:39:44.246Z,4.13
2022-11-20T22:42:10.874Z,4.25
2022-11-20T22:44:37.536Z,6.60
2022-11-20T22:47:08.674Z,4.78
2022-11-20T22:49:37.903Z,2.65
2022-11-20T22:52:04.763Z,3.83
2022-11-20T22:54:31.439Z,4.15
2022-11-20T22:56:58.124Z,2.83
2022-11-20T22:59:24.802Z,5.13
2022-11-20T23:01:51.464Z,2.88
2022-11-20T23:04:18.186Z,2.03
2022-11-20T23:06:44.804Z,3.75
2022-11-20T23:09:12.887Z,1.95
2022-11-20T23:11:39.883Z,2.30
2022-11-20T23:14:15.947Z,5.25
2022-11-20T23:16:42.697Z,3.92
2022-11-20T23:19:12.032Z,4.15
2022-11-20T23:21:41.113Z,3.95
2022-11-20T23:24:08.835Z,2.33
2022-11-20T23:26:37.728Z,5.43
2022-11-20T23:29:05.302Z,8.73
2022-11-20T23:31:33.592Z,6.38
2022-11-20T23:34:00.458Z,3.55
2022-11-20T23:36:27.352Z,4.70
2022-11-20T23:38:54.057Z,2.30
2022-11-20T23:41:20.760Z,3.53
2022-11-20T23:43:47.608Z,7.20
2022-11-20T23:46:16.656Z,2.75
2022-11-20T23:48:45.341Z,4.65
2022-11-20T23:51:12.792Z,3.85
2022-11-20T23:53:39.790Z,6.50
2022-11-20T23:56:06.697Z,4.35
2022-11-20T23:58:38.188Z,3.85
